sensor_id;sensor_type;location;lat;lon;timestamp;temperature;humidity
44695;DHT22;32845;59.422;17.930;2022-07-26T00:00:36;19.40;99.90
44695;DHT22;32845;59.422;17.930;2022-07-26T00:05:07;19.30;99.90
44695;DHT22;32845;59.422;17.930;2022-07-26T00:09:38;19.30;99.90
44695;DHT22;32845;59.422;17.930;2022-07-26T00:14:09;19.20;99.90
44695;DHT22;32845;59.422;17.930;2022-07-26T00:18:40;19.20;99.90
44695;DHT22;32845;59.422;17.930;2022-07-26T00:23:11;19.20;99.90
44695;DHT22;32845;59.422;17.930;2022-07-26T00:27:41;19.10;99.90
44695;DHT22;32845;59.422;17.930;2022-07-26T00:32:12;19.10;99.90
44695;DHT22;32845;59.422;17.930;2022-07-26T00:36:43;19.10;99.90
44695;DHT22;32845;59.422;17.930;2022-07-26T00:41:13;19.00;99.90
44695;DHT22;32845;59.422;17.930;2022-07-26T00:45:44;19.00;99.90
44695;DHT22;32845;59.422;17.930;2022-07-26T00:50:16;19.00;99.90
44695;DHT22;32845;59.422;17.930;2022-07-26T00:54:47;19.00;99.90
44695;DHT22;32845;59.422;17.930;2022-07-26T00:59:18;18.90;99.90
44695;DHT22;32845;59.422;17.930;2022-07-26T01:03:52;18.90;99.90
44695;DHT22;32845;59.422;17.930;2022-07-26T01:08:23;18.80;99.90
44695;DHT22;32845;59.422;17.930;2022-07-26T01:12:54;18.80;99.90
44695;DHT22;32845;59.422;17.930;2022-07-26T01:17:25;18.70;99.90
44695;DHT22;32845;59.422;17.930;2022-07-26T01:21:55;18.70;99.90
44695;DHT22;32845;59.422;17.930;2022-07-26T01:26:26;18.70;99.90
44695;DHT22;32845;59.422;17.930;2022-07-26T01:30:56;18.70;99.90
44695;DHT22;32845;59.422;17.930;2022-07-26T01:35:27;18.60;99.90
44695;DHT22;32845;59.422;17.930;2022-07-26T01:39:58;18.60;99.90
44695;DHT22;32845;59.422;17.930;2022-07-26T01:44:28;18.60;99.90
44695;DHT22;32845;59.422;17.930;2022-07-26T01:48:59;18.50;99.90
44695;DHT22;32845;59.422;17.930;2022-07-26T01:53:31;18.50;99.90
44695;DHT22;32845;59.422;17.930;2022-07-26T01:58:03;18.50;99.90
44695;DHT22;32845;59.422;17.930;2022-07-26T02:02:34;18.50;99.90
44695;DHT22;32845;59.422;17.930;2022-07-26T02:07:05;18.40;99.90
44695;DHT22;32845;59.422;17.930;2022-07-26T02:11:35;18.40;99.90
44695;DHT22;32845;59.422;17.930;2022-07-26T02:16:09;18.30;99.90
44695;DHT22;32845;59.422;17.930;2022-07-26T02:20:40;18.30;99.90
44695;DHT22;32845;59.422;17.930;2022-07-26T02:25:10;18.30;99.90
44695;DHT22;32845;59.422;17.930;2022-07-26T02:29:41;18.30;99.90
44695;DHT22;32845;59.422;17.930;2022-07-26T02:34:12;18.30;99.90
44695;DHT22;32845;59.422;17.930;2022-07-26T02:38:57;18.30;99.90
44695;DHT22;32845;59.422;17.930;2022-07-26T02:43:28;18.30;99.90
44695;DHT22;32845;59.422;17.930;2022-07-26T02:48:00;18.30;99.90
44695;DHT22;32845;59.422;17.930;2022-07-26T02:52:31;18.30;99.90
44695;DHT22;32845;59.422;17.930;2022-07-26T02:57:06;18.30;99.90
44695;DHT22;32845;59.422;17.930;2022-07-26T03:01:37;18.30;99.90
44695;DHT22;32845;59.422;17.930;2022-07-26T03:06:08;18.30;99.90
44695;DHT22;32845;59.422;17.930;2022-07-26T03:10:39;18.30;99.90
44695;DHT22;32845;59.422;17.930;2022-07-26T03:15:10;18.30;99.90
44695;DHT22;32845;59.422;17.930;2022-07-26T03:19:41;18.30;99.90
44695;DHT22;32845;59.422;17.930;2022-07-26T03:24:12;18.30;99.90
44695;DHT22;32845;59.422;17.930;2022-07-26T03:28:43;18.30;99.90
44695;DHT22;32845;59.422;17.930;2022-07-26T03:33:13;18.30;99.90
44695;DHT22;32845;59.422;17.930;2022-07-26T03:37:44;18.30;99.90
44695;DHT22;32845;59.422;17.930;2022-07-26T03:42:15;18.30;99.90
44695;DHT22;32845;59.422;17.930;2022-07-26T03:46:45;18.30;99.90
44695;DHT22;32845;59.422;17.930;2022-07-26T03:51:16;18.30;99.90
44695;DHT22;32845;59.422;17.930;2022-07-26T03:55:46;18.40;99.90
44695;DHT22;32845;59.422;17.930;2022-07-26T04:00:36;18.40;99.90
44695;DHT22;32845;59.422;17.930;2022-07-26T04:05:06;18.40;99.90
44695;DHT22;32845;59.422;17.930;2022-07-26T04:09:38;18.40;99.90
44695;DHT22;32845;59.422;17.930;2022-07-26T04:14:09;18.40;99.90
44695;DHT22;32845;59.422;17.930;2022-07-26T04:18:40;18.40;99.90
44695;DHT22;32845;59.422;17.930;2022-07-26T04:23:11;18.40;99.90
44695;DHT22;32845;59.422;17.930;2022-07-26T04:27:42;18.40;99.90
44695;DHT22;32845;59.422;17.930;2022-07-26T04:32:13;18.40;99.90
44695;DHT22;32845;59.422;17.930;2022-07-26T04:36:43;18.40;99.90
44695;DHT22;32845;59.422;17.930;2022-07-26T04:41:14;18.40;99.90
44695;DHT22;32845;59.422;17.930;2022-07-26T04:45:45;18.40;99.90
44695;DHT22;32845;59.422;17.930;2022-07-26T04:50:17;18.40;99.90
44695;DHT22;32845;59.422;17.930;2022-07-26T04:54:48;18.50;99.90
44695;DHT22;32845;59.422;17.930;2022-07-26T04:59:24;18.50;99.90
44695;DHT22;32845;59.422;17.930;2022-07-26T05:03:55;18.50;99.90
44695;DHT22;32845;59.422;17.930;2022-07-26T05:08:25;18.60;99.90
44695;DHT22;32845;59.422;17.930;2022-07-26T05:12:56;18.60;99.90
44695;DHT22;32845;59.422;17.930;2022-07-26T05:17:27;18.60;99.90
44695;DHT22;32845;59.422;17.930;2022-07-26T05:21:57;18.60;99.90
44695;DHT22;32845;59.422;17.930;2022-07-26T05:26:28;18.50;99.90
44695;DHT22;32845;59.422;17.930;2022-07-26T05:30:59;18.50;99.90
44695;DHT22;32845;59.422;17.930;2022-07-26T05:35:29;18.50;99.90
44695;DHT22;32845;59.422;17.930;2022-07-26T05:40:00;18.50;99.90
44695;DHT22;32845;59.422;17.930;2022-07-26T05:44:31;18.50;99.90
44695;DHT22;32845;59.422;17.930;2022-07-26T05:49:03;18.50;99.90
44695;DHT22;32845;59.422;17.930;2022-07-26T05:53:34;18.50;99.90
44695;DHT22;32845;59.422;17.930;2022-07-26T05:58:09;18.40;99.90
44695;DHT22;32845;59.422;17.930;2022-07-26T06:02:40;18.40;99.90
44695;DHT22;32845;59.422;17.930;2022-07-26T06:07:11;18.40;99.90
44695;DHT22;32845;59.422;17.930;2022-07-26T06:11:42;18.40;99.90
44695;DHT22;32845;59.422;17.930;2022-07-26T06:16:12;18.30;99.90
44695;DHT22;32845;59.422;17.930;2022-07-26T06:20:45;18.30;99.90
44695;DHT22;32845;59.422;17.930;2022-07-26T06:25:16;18.30;99.90
44695;DHT22;32845;59.422;17.930;2022-07-26T06:29:47;18.30;99.90
44695;DHT22;32845;59.422;17.930;2022-07-26T06:34:18;18.40;99.90
44695;DHT22;32845;59.422;17.930;2022-07-26T06:38:49;18.40;99.90
44695;DHT22;32845;59.422;17.930;2022-07-26T06:43:20;18.40;99.90
44695;DHT22;32845;59.422;17.930;2022-07-26T06:47:50;18.40;99.90
44695;DHT22;32845;59.422;17.930;2022-07-26T06:52:21;18.40;99.90
44695;DHT22;32845;59.422;17.930;2022-07-26T06:56:52;18.40;99.90
44695;DHT22;32845;59.422;17.930;2022-07-26T07:01:22;18.40;99.90
44695;DHT22;32845;59.422;17.930;2022-07-26T07:05:53;18.40;99.90
44695;DHT22;32845;59.422;17.930;2022-07-26T07:10:28;18.40;99.90
44695;DHT22;32845;59.422;17.930;2022-07-26T07:14:59;18.30;99.90
44695;DHT22;32845;59.422;17.930;2022-07-26T07:19:35;18.20;99.90
44695;DHT22;32845;59.422;17.930;2022-07-26T07:24:06;18.20;99.90
44695;DHT22;32845;59.422;17.930;2022-07-26T07:28:37;18.20;99.90
44695;DHT22;32845;59.422;17.930;2022-07-26T07:33:07;18.20;99.90
44695;DHT22;32845;59.422;17.930;2022-07-26T07:37:42;18.20;99.90
44695;DHT22;32845;59.422;17.930;2022-07-26T07:42:13;18.10;99.90
44695;DHT22;32845;59.422;17.930;2022-07-26T07:46:43;18.20;99.90
44695;DHT22;32845;59.422;17.930;2022-07-26T07:51:14;18.40;99.90
44695;DHT22;32845;59.422;17.930;2022-07-26T07:55:44;18.50;99.90
44695;DHT22;32845;59.422;17.930;2022-07-26T08:00:15;18.60;99.90
44695;DHT22;32845;59.422;17.930;2022-07-26T08:04:48;18.70;99.90
44695;DHT22;32845;59.422;17.930;2022-07-26T08:09:19;18.80;99.90
44695;DHT22;32845;59.422;17.930;2022-07-26T08:13:49;18.90;99.90
44695;DHT22;32845;59.422;17.930;2022-07-26T08:18:25;18.90;99.90
44695;DHT22;32845;59.422;17.930;2022-07-26T08:22:56;18.90;99.90
44695;DHT22;32845;59.422;17.930;2022-07-26T08:27:26;18.90;99.90
44695;DHT22;32845;59.422;17.930;2022-07-26T08:31:57;19.00;99.90
44695;DHT22;32845;59.422;17.930;2022-07-26T08:36:28;19.10;99.90
44695;DHT22;32845;59.422;17.930;2022-07-26T08:40:58;19.30;99.90
44695;DHT22;32845;59.422;17.930;2022-07-26T08:45:30;19.40;99.90
44695;DHT22;32845;59.422;17.930;2022-07-26T08:50:06;19.40;99.90
44695;DHT22;32845;59.422;17.930;2022-07-26T08:54:44;19.50;99.90
44695;DHT22;32845;59.422;17.930;2022-07-26T08:59:16;19.50;99.90
44695;DHT22;32845;59.422;17.930;2022-07-26T09:03:47;19.60;99.90
44695;DHT22;32845;59.422;17.930;2022-07-26T09:08:26;19.60;99.90
44695;DHT22;32845;59.422;17.930;2022-07-26T09:12:57;19.70;99.90
44695;DHT22;32845;59.422;17.930;2022-07-26T09:17:44;19.80;99.90
44695;DHT22;32845;59.422;17.930;2022-07-26T09:22:15;20.00;99.90
44695;DHT22;32845;59.422;17.930;2022-07-26T09:26:57;20.10;99.90
44695;DHT22;32845;59.422;17.930;2022-07-26T09:31:28;20.20;99.90
44695;DHT22;32845;59.422;17.930;2022-07-26T09:36:02;20.10;99.90
44695;DHT22;32845;59.422;17.930;2022-07-26T09:40:34;20.10;99.90
44695;DHT22;32845;59.422;17.930;2022-07-26T09:45:15;20.10;99.90
44695;DHT22;32845;59.422;17.930;2022-07-26T09:49:46;20.40;99.90
44695;DHT22;32845;59.422;17.930;2022-07-26T09:54:35;20.50;99.90
44695;DHT22;32845;59.422;17.930;2022-07-26T09:59:06;20.50;99.90
44695;DHT22;32845;59.422;17.930;2022-07-26T10:03:37;20.50;99.90
44695;DHT22;32845;59.422;17.930;2022-07-26T10:08:08;20.60;99.90
44695;DHT22;32845;59.422;17.930;2022-07-26T10:12:39;20.60;99.90
44695;DHT22;32845;59.422;17.930;2022-07-26T10:17:39;20.60;99.90
44695;DHT22;32845;59.422;17.930;2022-07-26T10:22:31;20.60;99.90
44695;DHT22;32845;59.422;17.930;2022-07-26T10:27:03;20.60;99.90
44695;DHT22;32845;59.422;17.930;2022-07-26T10:31:35;20.70;99.90
44695;DHT22;32845;59.422;17.930;2022-07-26T10:36:24;20.90;99.90
44695;DHT22;32845;59.422;17.930;2022-07-26T10:41:02;21.00;99.90
44695;DHT22;32845;59.422;17.930;2022-07-26T10:45:32;21.10;99.90
44695;DHT22;32845;59.422;17.930;2022-07-26T10:50:04;21.20;99.90
44695;DHT22;32845;59.422;17.930;2022-07-26T10:59:31;21.40;99.90
44695;DHT22;32845;59.422;17.930;2022-07-26T11:04:03;21.50;99.90
44695;DHT22;32845;59.422;17.930;2022-07-26T11:08:34;21.50;99.90
44695;DHT22;32845;59.422;17.930;2022-07-26T11:13:19;21.60;99.90
44695;DHT22;32845;59.422;17.930;2022-07-26T11:17:50;21.70;99.90
44695;DHT22;32845;59.422;17.930;2022-07-26T11:22:30;21.90;99.90
44695;DHT22;32845;59.422;17.930;2022-07-26T11:27:02;22.20;99.90
44695;DHT22;32845;59.422;17.930;2022-07-26T11:31:51;22.40;99.90
44695;DHT22;32845;59.422;17.930;2022-07-26T11:36:38;22.30;99.90
44695;DHT22;32845;59.422;17.930;2022-07-26T11:41:09;22.50;99.90
44695;DHT22;32845;59.422;17.930;2022-07-26T11:45:40;22.80;99.90
44695;DHT22;32845;59.422;17.930;2022-07-26T11:50:18;22.90;99.90
44695;DHT22;32845;59.422;17.930;2022-07-26T11:54:50;22.80;99.90
44695;DHT22;32845;59.422;17.930;2022-07-26T11:59:31;22.60;99.90
44695;DHT22;32845;59.422;17.930;2022-07-26T12:04:02;22.40;99.90
44695;DHT22;32845;59.422;17.930;2022-07-26T12:08:41;22.10;99.90
44695;DHT22;32845;59.422;17.930;2022-07-26T12:13:13;22.20;99.90
44695;DHT22;32845;59.422;17.930;2022-07-26T12:17:57;22.20;99.90
44695;DHT22;32845;59.422;17.930;2022-07-26T12:22:28;22.10;99.90
44695;DHT22;32845;59.422;17.930;2022-07-26T12:27:19;21.90;99.90
44695;DHT22;32845;59.422;17.930;2022-07-26T12:32:10;21.70;99.90
44695;DHT22;32845;59.422;17.930;2022-07-26T12:36:41;21.90;99.90
44695;DHT22;32845;59.422;17.930;2022-07-26T12:41:12;22.30;99.90
44695;DHT22;32845;59.422;17.930;2022-07-26T12:45:59;22.80;99.90
44695;DHT22;32845;59.422;17.930;2022-07-26T12:50:30;23.10;99.90
44695;DHT22;32845;59.422;17.930;2022-07-26T12:55:04;23.20;99.90
44695;DHT22;32845;59.422;17.930;2022-07-26T12:59:35;23.40;99.90
44695;DHT22;32845;59.422;17.930;2022-07-26T13:04:06;23.40;99.90
44695;DHT22;32845;59.422;17.930;2022-07-26T13:08:37;23.50;99.90
44695;DHT22;32845;59.422;17.930;2022-07-26T13:13:07;23.50;99.90
44695;DHT22;32845;59.422;17.930;2022-07-26T13:17:38;23.70;99.90
44695;DHT22;32845;59.422;17.930;2022-07-26T13:22:09;23.70;99.90
44695;DHT22;32845;59.422;17.930;2022-07-26T13:26:39;23.70;99.90
44695;DHT22;32845;59.422;17.930;2022-07-26T13:31:10;23.80;99.90
44695;DHT22;32845;59.422;17.930;2022-07-26T13:35:42;23.80;99.90
44695;DHT22;32845;59.422;17.930;2022-07-26T13:40:12;23.70;99.90
44695;DHT22;32845;59.422;17.930;2022-07-26T13:44:43;23.60;99.90
44695;DHT22;32845;59.422;17.930;2022-07-26T13:49:14;23.30;99.90
44695;DHT22;32845;59.422;17.930;2022-07-26T13:53:44;23.10;99.90
44695;DHT22;32845;59.422;17.930;2022-07-26T13:58:15;22.90;99.90
44695;DHT22;32845;59.422;17.930;2022-07-26T14:02:46;22.60;99.90
44695;DHT22;32845;59.422;17.930;2022-07-26T14:07:16;22.40;99.90
44695;DHT22;32845;59.422;17.930;2022-07-26T14:11:47;22.30;99.90
44695;DHT22;32845;59.422;17.930;2022-07-26T14:16:18;22.10;99.90
44695;DHT22;32845;59.422;17.930;2022-07-26T14:20:49;22.00;99.90
44695;DHT22;32845;59.422;17.930;2022-07-26T14:25:24;21.90;99.90
44695;DHT22;32845;59.422;17.930;2022-07-26T14:29:55;21.80;99.90
44695;DHT22;32845;59.422;17.930;2022-07-26T14:34:26;21.70;99.90
44695;DHT22;32845;59.422;17.930;2022-07-26T14:38:56;21.60;99.90
44695;DHT22;32845;59.422;17.930;2022-07-26T14:43:27;21.60;99.90
44695;DHT22;32845;59.422;17.930;2022-07-26T14:48:03;21.50;99.90
44695;DHT22;32845;59.422;17.930;2022-07-26T14:52:45;21.50;99.90
44695;DHT22;32845;59.422;17.930;2022-07-26T14:57:21;21.50;99.90
44695;DHT22;32845;59.422;17.930;2022-07-26T15:01:51;21.60;99.90
44695;DHT22;32845;59.422;17.930;2022-07-26T15:06:22;21.50;99.90
44695;DHT22;32845;59.422;17.930;2022-07-26T15:10:53;21.50;99.90
44695;DHT22;32845;59.422;17.930;2022-07-26T15:15:24;21.40;99.90
44695;DHT22;32845;59.422;17.930;2022-07-26T15:19:55;21.40;99.90
44695;DHT22;32845;59.422;17.930;2022-07-26T15:24:26;21.30;99.90
44695;DHT22;32845;59.422;17.930;2022-07-26T15:28:58;21.30;99.90
44695;DHT22;32845;59.422;17.930;2022-07-26T15:33:30;21.20;99.90
44695;DHT22;32845;59.422;17.930;2022-07-26T15:38:02;21.10;99.90
44695;DHT22;32845;59.422;17.930;2022-07-26T15:42:32;21.00;99.90
44695;DHT22;32845;59.422;17.930;2022-07-26T15:47:03;20.90;99.90
44695;DHT22;32845;59.422;17.930;2022-07-26T15:51:34;20.80;99.90
44695;DHT22;32845;59.422;17.930;2022-07-26T15:56:06;20.70;99.90
44695;DHT22;32845;59.422;17.930;2022-07-26T16:00:37;20.70;99.90
44695;DHT22;32845;59.422;17.930;2022-07-26T16:05:08;20.70;99.90
44695;DHT22;32845;59.422;17.930;2022-07-26T16:09:39;20.70;99.90
44695;DHT22;32845;59.422;17.930;2022-07-26T16:14:10;20.70;99.90
44695;DHT22;32845;59.422;17.930;2022-07-26T16:18:40;20.60;99.90
44695;DHT22;32845;59.422;17.930;2022-07-26T16:23:11;20.60;99.90
44695;DHT22;32845;59.422;17.930;2022-07-26T16:27:42;20.50;99.90
44695;DHT22;32845;59.422;17.930;2022-07-26T16:32:13;20.60;99.90
44695;DHT22;32845;59.422;17.930;2022-07-26T16:36:49;20.60;99.90
44695;DHT22;32845;59.422;17.930;2022-07-26T16:41:19;20.60;99.90
44695;DHT22;32845;59.422;17.930;2022-07-26T16:45:50;20.50;99.90
44695;DHT22;32845;59.422;17.930;2022-07-26T16:50:20;20.40;99.90
44695;DHT22;32845;59.422;17.930;2022-07-26T16:54:51;20.30;99.90
44695;DHT22;32845;59.422;17.930;2022-07-26T16:59:31;20.20;99.90
44695;DHT22;32845;59.422;17.930;2022-07-26T17:04:01;20.20;99.90
44695;DHT22;32845;59.422;17.930;2022-07-26T17:08:32;20.10;99.90
44695;DHT22;32845;59.422;17.930;2022-07-26T17:13:03;20.10;99.90
44695;DHT22;32845;59.422;17.930;2022-07-26T17:17:33;20.00;99.90
44695;DHT22;32845;59.422;17.930;2022-07-26T17:22:04;20.00;99.90
44695;DHT22;32845;59.422;17.930;2022-07-26T17:26:35;20.00;99.90
44695;DHT22;32845;59.422;17.930;2022-07-26T17:31:05;19.90;99.90
44695;DHT22;32845;59.422;17.930;2022-07-26T17:35:36;20.00;99.90
44695;DHT22;32845;59.422;17.930;2022-07-26T17:40:07;20.00;99.80
44695;DHT22;32845;59.422;17.930;2022-07-26T17:44:38;20.00;99.50
44695;DHT22;32845;59.422;17.930;2022-07-26T17:49:10;20.00;99.40
44695;DHT22;32845;59.422;17.930;2022-07-26T17:53:41;20.00;99.10
44695;DHT22;32845;59.422;17.930;2022-07-26T17:58:12;19.90;99.00
44695;DHT22;32845;59.422;17.930;2022-07-26T18:02:42;19.80;98.10
44695;DHT22;32845;59.422;17.930;2022-07-26T18:07:13;19.80;98.40
44695;DHT22;32845;59.422;17.930;2022-07-26T18:11:44;19.70;99.00
44695;DHT22;32845;59.422;17.930;2022-07-26T18:16:14;19.70;99.00
44695;DHT22;32845;59.422;17.930;2022-07-26T18:20:45;19.70;99.10
44695;DHT22;32845;59.422;17.930;2022-07-26T18:25:16;19.60;99.00
44695;DHT22;32845;59.422;17.930;2022-07-26T18:29:47;19.50;98.30
44695;DHT22;32845;59.422;17.930;2022-07-26T18:34:17;19.40;98.80
44695;DHT22;32845;59.422;17.930;2022-07-26T18:38:53;19.40;98.70
44695;DHT22;32845;59.422;17.930;2022-07-26T18:43:23;19.30;98.50
44695;DHT22;32845;59.422;17.930;2022-07-26T18:47:54;19.20;99.30
44695;DHT22;32845;59.422;17.930;2022-07-26T18:52:25;19.10;99.00
44695;DHT22;32845;59.422;17.930;2022-07-26T18:56:55;19.10;98.90
44695;DHT22;32845;59.422;17.930;2022-07-26T19:01:26;19.00;99.40
44695;DHT22;32845;59.422;17.930;2022-07-26T19:05:57;18.90;99.10
44695;DHT22;32845;59.422;17.930;2022-07-26T19:10:42;18.80;99.50
44695;DHT22;32845;59.422;17.930;2022-07-26T19:15:14;18.60;99.40
44695;DHT22;32845;59.422;17.930;2022-07-26T19:20:00;18.50;99.70
44695;DHT22;32845;59.422;17.930;2022-07-26T19:24:30;18.40;99.90
44695;DHT22;32845;59.422;17.930;2022-07-26T19:29:01;18.30;99.90
44695;DHT22;32845;59.422;17.930;2022-07-26T19:33:32;18.10;99.90
44695;DHT22;32845;59.422;17.930;2022-07-26T19:38:07;18.10;99.90
44695;DHT22;32845;59.422;17.930;2022-07-26T19:42:38;18.00;99.90
44695;DHT22;32845;59.422;17.930;2022-07-26T19:47:10;18.00;99.90
44695;DHT22;32845;59.422;17.930;2022-07-26T19:51:42;17.90;99.90
44695;DHT22;32845;59.422;17.930;2022-07-26T19:56:13;17.90;99.90
44695;DHT22;32845;59.422;17.930;2022-07-26T20:00:43;17.90;99.90
44695;DHT22;32845;59.422;17.930;2022-07-26T20:05:14;17.80;99.90
44695;DHT22;32845;59.422;17.930;2022-07-26T20:09:49;17.70;99.90
44695;DHT22;32845;59.422;17.930;2022-07-26T20:14:20;17.70;99.90
44695;DHT22;32845;59.422;17.930;2022-07-26T20:18:56;17.70;99.90
44695;DHT22;32845;59.422;17.930;2022-07-26T20:23:27;17.60;99.90
44695;DHT22;32845;59.422;17.930;2022-07-26T20:27:58;17.60;99.90
44695;DHT22;32845;59.422;17.930;2022-07-26T20:32:29;17.50;99.90
44695;DHT22;32845;59.422;17.930;2022-07-26T20:36:59;17.50;99.90
44695;DHT22;32845;59.422;17.930;2022-07-26T20:41:30;17.40;99.90
44695;DHT22;32845;59.422;17.930;2022-07-26T20:46:01;17.30;99.90
44695;DHT22;32845;59.422;17.930;2022-07-26T20:50:37;17.30;99.90
44695;DHT22;32845;59.422;17.930;2022-07-26T20:55:08;17.20;99.90
44695;DHT22;32845;59.422;17.930;2022-07-26T20:59:39;17.20;99.90
44695;DHT22;32845;59.422;17.930;2022-07-26T21:04:09;17.20;99.90
44695;DHT22;32845;59.422;17.930;2022-07-26T21:08:41;17.10;99.90
44695;DHT22;32845;59.422;17.930;2022-07-26T21:13:12;17.10;99.90
44695;DHT22;32845;59.422;17.930;2022-07-26T21:17:43;17.00;99.90
44695;DHT22;32845;59.422;17.930;2022-07-26T21:22:13;17.00;99.90
44695;DHT22;32845;59.422;17.930;2022-07-26T21:26:44;17.00;99.90
44695;DHT22;32845;59.422;17.930;2022-07-26T21:31:15;16.90;99.90
44695;DHT22;32845;59.422;17.930;2022-07-26T21:35:45;16.90;99.90
44695;DHT22;32845;59.422;17.930;2022-07-26T21:40:16;16.90;99.90
44695;DHT22;32845;59.422;17.930;2022-07-26T21:44:46;16.90;99.90
44695;DHT22;32845;59.422;17.930;2022-07-26T21:49:17;16.90;99.90
44695;DHT22;32845;59.422;17.930;2022-07-26T21:53:48;16.90;99.90
44695;DHT22;32845;59.422;17.930;2022-07-26T21:58:24;16.90;99.90
44695;DHT22;32845;59.422;17.930;2022-07-26T22:02:54;16.80;99.90
44695;DHT22;32845;59.422;17.930;2022-07-26T22:07:25;16.80;99.90
44695;DHT22;32845;59.422;17.930;2022-07-26T22:11:55;16.80;99.90
44695;DHT22;32845;59.422;17.930;2022-07-26T22:16:26;16.80;99.90
44695;DHT22;32845;59.422;17.930;2022-07-26T22:20:57;16.80;99.90
44695;DHT22;32845;59.422;17.930;2022-07-26T22:25:29;16.70;99.90
44695;DHT22;32845;59.422;17.930;2022-07-26T22:30:00;16.70;99.90
44695;DHT22;32845;59.422;17.930;2022-07-26T22:34:32;16.80;99.90
44695;DHT22;32845;59.422;17.930;2022-07-26T22:39:02;16.70;99.90
44695;DHT22;32845;59.422;17.930;2022-07-26T22:43:33;16.70;99.90
44695;DHT22;32845;59.422;17.930;2022-07-26T22:48:05;16.70;99.90
44695;DHT22;32845;59.422;17.930;2022-07-26T22:52:35;16.80;99.90
44695;DHT22;32845;59.422;17.930;2022-07-26T22:57:06;16.70;99.90
44695;DHT22;32845;59.422;17.930;2022-07-26T23:01:37;16.70;99.90
44695;DHT22;32845;59.422;17.930;2022-07-26T23:06:07;16.70;99.90
44695;DHT22;32845;59.422;17.930;2022-07-26T23:10:38;16.70;99.90
44695;DHT22;32845;59.422;17.930;2022-07-26T23:15:09;16.70;99.90
44695;DHT22;32845;59.422;17.930;2022-07-26T23:19:40;16.70;99.90
44695;DHT22;32845;59.422;17.930;2022-07-26T23:24:11;16.60;99.90
44695;DHT22;32845;59.422;17.930;2022-07-26T23:28:42;16.60;99.90
44695;DHT22;32845;59.422;17.930;2022-07-26T23:33:12;16.60;99.90
44695;DHT22;32845;59.422;17.930;2022-07-26T23:37:43;16.60;99.90
44695;DHT22;32845;59.422;17.930;2022-07-26T23:42:13;16.60;99.90
44695;DHT22;32845;59.422;17.930;2022-07-26T23:46:44;16.60;99.90
44695;DHT22;32845;59.422;17.930;2022-07-26T23:51:14;16.60;99.90
44695;DHT22;32845;59.422;17.930;2022-07-26T23:55:45;16.50;99.90
